createdAt,value
2022-09-28T00:01:25.061Z,1.40
2022-09-28T00:03:54.532Z,1.40
2022-09-28T00:06:24.512Z,0.85
2022-09-28T00:08:51.598Z,0.88
2022-09-28T00:11:20.764Z,1.10
2022-09-28T00:16:20.796Z,1.13
2022-09-28T00:18:47.423Z,1.23
2022-09-28T00:21:17.434Z,0.93
2022-09-28T00:24:03.272Z,1.00
2022-09-28T00:26:32.961Z,0.93
2022-09-28T00:29:01.603Z,1.17
2022-09-28T00:31:32.663Z,0.93
2022-09-28T00:34:00.795Z,1.17
2022-09-28T00:36:31.720Z,0.93
2022-09-28T00:38:59.876Z,0.88
2022-09-28T00:41:28.016Z,0.85
2022-09-28T00:44:26.416Z,1.00
2022-09-28T00:47:07.398Z,0.80
2022-09-28T00:49:38.639Z,0.90
2022-09-28T00:52:09.649Z,0.82
2022-09-28T00:54:36.645Z,0.85
2022-09-28T00:57:04.259Z,1.05
2022-09-28T00:59:33.374Z,1.10
2022-09-28T01:02:01.306Z,1.00
2022-09-28T01:04:30.174Z,1.38
2022-09-28T01:06:58.950Z,1.23
2022-09-28T01:09:27.609Z,1.30
2022-09-28T01:11:55.237Z,0.60
2022-09-28T01:14:25.721Z,0.82
2022-09-28T01:17:06.749Z,0.98
2022-09-28T01:19:58.915Z,1.00
2022-09-28T01:22:34.578Z,1.05
2022-09-28T01:25:16.749Z,0.88
2022-09-28T01:27:50.463Z,0.85
2022-09-28T01:30:19.914Z,1.02
2022-09-28T01:33:07.172Z,0.82
2022-09-28T01:35:43.382Z,2.22
2022-09-28T01:38:17.509Z,1.13
2022-09-28T01:40:46.297Z,1.10
2022-09-28T01:43:19.122Z,1.05
2022-09-28T01:45:51.625Z,0.77
2022-09-28T01:48:25.613Z,1.05
2022-09-28T01:50:57.954Z,0.90
2022-09-28T01:53:31.851Z,1.02
2022-09-28T01:56:04.169Z,0.77
2022-09-28T01:58:37.895Z,1.25
2022-09-28T02:01:13.184Z,1.50
2022-09-28T02:03:46.899Z,1.10
2022-09-28T02:06:22.280Z,0.75
2022-09-28T02:08:56.550Z,0.80
2022-09-28T02:11:23.750Z,1.25
2022-09-28T02:13:52.789Z,1.00
2022-09-28T02:16:39.411Z,1.15
2022-09-28T02:19:08.842Z,0.70
2022-09-28T02:22:27.532Z,0.80
2022-09-28T02:25:09.850Z,0.98
2022-09-28T02:27:36.438Z,1.30
2022-09-28T02:30:06.072Z,1.33
2022-09-28T02:32:35.182Z,1.20
2022-09-28T02:35:01.839Z,0.82
2022-09-28T02:37:28.400Z,1.17
2022-09-28T02:39:55.459Z,1.00
2022-09-28T02:42:33.117Z,0.98
2022-09-28T02:45:08.654Z,0.90
2022-09-28T02:47:50.687Z,0.93
2022-09-28T02:50:54.696Z,1.20
2022-09-28T02:53:33.469Z,1.23
2022-09-28T02:56:15.104Z,1.10
2022-09-28T02:59:01.333Z,1.08
2022-09-28T03:01:30.932Z,1.00
2022-09-28T03:04:00.193Z,1.00
2022-09-28T03:06:26.681Z,1.35
2022-09-28T03:09:01.057Z,1.25
2022-09-28T03:11:36.436Z,1.85
2022-09-28T03:14:04.254Z,1.42
2022-09-28T03:16:32.239Z,1.17
2022-09-28T03:18:58.895Z,1.25
2022-09-28T03:21:25.511Z,1.10
2022-09-28T03:23:52.047Z,1.40
2022-09-28T03:26:19.836Z,1.33
2022-09-28T03:28:46.797Z,1.40
2022-09-28T03:31:13.414Z,1.40
2022-09-28T03:33:39.960Z,2.38
2022-09-28T03:36:08.666Z,1.75
2022-09-28T03:38:35.492Z,1.42
2022-09-28T03:41:02.088Z,1.70
2022-09-28T03:43:30.502Z,1.50
2022-09-28T03:46:00.412Z,1.50
2022-09-28T03:48:32.421Z,1.35
2022-09-28T03:51:05.457Z,1.25
2022-09-28T03:53:33.056Z,1.77
2022-09-28T03:56:08.338Z,1.80
2022-09-28T03:58:34.891Z,1.73
2022-09-28T04:01:03.721Z,1.70
2022-09-28T04:03:31.196Z,1.55
2022-09-28T04:05:58.089Z,1.50
2022-09-28T04:08:24.653Z,1.55
2022-09-28T04:10:51.425Z,1.38
2022-09-28T04:13:17.980Z,1.80
2022-09-28T04:15:53.298Z,2.00
2022-09-28T04:18:20.432Z,1.80
2022-09-28T04:20:48.223Z,1.70
2022-09-28T04:23:17.684Z,1.52
2022-09-28T04:25:47.866Z,1.60
2022-09-28T04:28:33.034Z,3.17
2022-09-28T04:30:59.663Z,2.47
2022-09-28T04:33:26.204Z,1.60
2022-09-28T04:35:52.727Z,1.63
2022-09-28T04:38:30.872Z,1.63
2022-09-28T04:41:06.127Z,1.70
2022-09-28T04:43:32.682Z,1.48
2022-09-28T04:46:02.802Z,1.73
2022-09-28T04:48:29.638Z,1.50
2022-09-28T04:50:57.186Z,1.30
2022-09-28T04:53:25.068Z,1.40
2022-09-28T04:55:59.618Z,1.30
2022-09-28T04:58:26.765Z,1.40
2022-09-28T05:00:54.382Z,1.20
2022-09-28T05:03:21.166Z,1.92
2022-09-28T05:05:49.103Z,1.95
2022-09-28T05:08:16.257Z,1.55
2022-09-28T05:10:43.144Z,1.95
2022-09-28T05:13:11.623Z,1.65
2022-09-28T05:15:39.584Z,1.80
2022-09-28T05:18:07.367Z,1.90
2022-09-28T05:20:39.688Z,1.63
2022-09-28T05:23:06.230Z,2.30
2022-09-28T05:25:33.964Z,2.15
2022-09-28T05:28:01.822Z,2.33
2022-09-28T05:30:28.337Z,2.53
2022-09-28T05:32:54.910Z,2.17
2022-09-28T05:35:21.449Z,2.85
2022-09-28T05:37:48.178Z,5.30
2022-09-28T05:40:15.058Z,4.25
2022-09-28T05:42:42.368Z,4.93
2022-09-28T05:45:10.245Z,4.63
2022-09-28T05:47:41.113Z,4.70
2022-09-28T05:50:11.629Z,4.50
2022-09-28T05:52:38.865Z,4.30
2022-09-28T05:55:06.857Z,3.85
2022-09-28T05:57:33.472Z,3.55
2022-09-28T06:00:00.145Z,3.90
2022-09-28T06:02:26.802Z,3.55
2022-09-28T06:04:53.924Z,3.13
2022-09-28T06:07:23.903Z,3.60
2022-09-28T06:09:50.454Z,2.92
2022-09-28T06:12:17.067Z,3.78
2022-09-28T06:14:44.176Z,3.40
2022-09-28T06:17:10.732Z,3.67
2022-09-28T06:19:37.270Z,3.40
2022-09-28T06:22:03.823Z,2.75
2022-09-28T06:24:30.357Z,2.72
2022-09-28T06:26:56.913Z,3.15
2022-09-28T06:29:23.414Z,3.15
2022-09-28T06:31:49.924Z,2.95
2022-09-28T06:34:17.321Z,2.65
2022-09-28T06:36:43.966Z,2.35
2022-09-28T06:39:10.533Z,3.15
2022-09-28T06:41:37.069Z,3.20
2022-09-28T06:44:03.785Z,3.15
2022-09-28T06:46:31.476Z,2.65
2022-09-28T06:48:58.770Z,3.42
2022-09-28T06:51:25.296Z,2.60
2022-09-28T06:53:53.908Z,2.80
2022-09-28T06:56:21.087Z,2.58
2022-09-28T06:58:48.112Z,2.65
2022-09-28T07:01:14.746Z,2.47
2022-09-28T07:03:41.345Z,2.30
2022-09-28T07:06:11.441Z,2.83
2022-09-28T07:08:38.277Z,2.30
2022-09-28T07:11:06.951Z,2.58
2022-09-28T07:13:49.698Z,2.63
2022-09-28T07:16:17.423Z,2.70
2022-09-28T07:18:44.254Z,3.10
2022-09-28T07:21:20.266Z,3.00
2022-09-28T07:23:54.347Z,3.30
2022-09-28T07:26:24.032Z,3.25
2022-09-28T07:28:51.072Z,2.50
2022-09-28T07:31:17.720Z,2.38
2022-09-28T07:33:44.364Z,2.35
2022-09-28T07:36:10.881Z,2.42
2022-09-28T07:38:38.321Z,2.72
2022-09-28T07:41:22.528Z,2.35
2022-09-28T07:43:49.883Z,2.67
2022-09-28T07:46:17.581Z,2.25
2022-09-28T07:48:45.898Z,2.20
2022-09-28T07:51:12.649Z,2.20
2022-09-28T07:53:39.255Z,1.98
2022-09-28T07:56:07.997Z,2.03
2022-09-28T07:58:36.585Z,2.83
2022-09-28T08:01:06.522Z,2.10
2022-09-28T08:03:33.850Z,1.83
2022-09-28T08:06:09.877Z,1.90
2022-09-28T08:08:36.640Z,1.92
2022-09-28T08:11:03.641Z,2.15
2022-09-28T08:13:31.115Z,2.10
2022-09-28T08:16:01.582Z,3.03
2022-09-28T08:18:28.198Z,2.30
2022-09-28T08:21:13.285Z,1.90
2022-09-28T08:23:39.811Z,2.28
2022-09-28T08:26:06.710Z,1.73
2022-09-28T08:28:33.478Z,1.88
2022-09-28T08:31:04.706Z,1.50
2022-09-28T08:33:31.366Z,1.77
2022-09-28T08:35:59.283Z,1.40
2022-09-28T08:38:28.820Z,1.30
2022-09-28T08:41:19.136Z,1.65
2022-09-28T08:43:54.634Z,1.38
2022-09-28T08:46:27.012Z,1.42
2022-09-28T08:49:24.563Z,1.02
2022-09-28T08:52:23.381Z,0.93
2022-09-28T08:55:02.344Z,0.90
2022-09-28T08:57:36.263Z,0.85
2022-09-28T09:00:09.624Z,0.80
2022-09-28T09:02:39.804Z,1.00
2022-09-28T09:05:13.825Z,1.08
2022-09-28T09:07:49.009Z,1.00
2022-09-28T09:10:36.908Z,1.10
2022-09-28T09:13:24.992Z,0.95
2022-09-28T09:15:51.523Z,0.88
2022-09-28T09:18:33.250Z,0.80
2022-09-28T09:21:09.813Z,0.93
2022-09-28T09:23:54.217Z,0.70
2022-09-28T09:26:39.679Z,0.77
2022-09-28T09:29:21.410Z,0.77
2022-09-28T09:32:17.523Z,0.80
2022-09-28T09:35:07.727Z,0.80
2022-09-28T09:37:34.622Z,0.80
2022-09-28T09:40:26.370Z,0.98
2022-09-28T09:43:29.526Z,0.73
2022-09-28T09:46:11.823Z,1.00
2022-09-28T09:48:41.448Z,0.82
2022-09-28T09:51:18.483Z,1.17
2022-09-28T09:53:52.893Z,1.00
2022-09-28T09:56:31.650Z,0.70
2022-09-28T09:59:06.364Z,0.93
2022-09-28T10:01:37.773Z,0.60
2022-09-28T10:04:07.970Z,0.73
2022-09-28T10:06:36.618Z,0.70
2022-09-28T10:09:45.785Z,0.63
2022-09-28T10:12:18.856Z,0.82
2022-09-28T10:14:46.421Z,0.70
2022-09-28T10:17:19.772Z,0.55
2022-09-28T10:19:46.458Z,0.73
2022-09-28T10:22:21.532Z,0.77
2022-09-28T10:24:51.730Z,0.50
2022-09-28T10:27:23.974Z,0.80
2022-09-28T10:29:59.324Z,0.57
2022-09-28T10:32:28.295Z,0.60
2022-09-28T10:35:31.440Z,0.88
2022-09-28T10:38:01.804Z,0.43
2022-09-28T10:40:37.597Z,0.52
2022-09-28T10:43:08.262Z,0.52
2022-09-28T10:45:37.419Z,0.45
2022-09-28T10:50:32.714Z,0.70
2022-09-28T10:53:20.581Z,0.40
2022-09-28T10:55:59.395Z,0.40
2022-09-28T10:58:29.387Z,0.50
2022-09-28T11:01:02.069Z,0.60
2022-09-28T11:03:30.476Z,0.70
2022-09-28T11:06:01.524Z,0.40
2022-09-28T11:08:44.578Z,1.27
2022-09-28T11:11:16.335Z,0.52
2022-09-28T11:13:49.889Z,1.15
2022-09-28T11:16:44.191Z,1.75
2022-09-28T11:19:20.220Z,1.30
2022-09-28T11:21:46.969Z,1.60
2022-09-28T11:24:23.666Z,1.00
2022-09-28T11:26:52.993Z,0.70
2022-09-28T11:32:06.299Z,0.60
2022-09-28T11:34:58.057Z,0.50
2022-09-28T11:37:27.802Z,0.50
2022-09-28T11:40:13.303Z,0.75
2022-09-28T11:43:10.663Z,0.77
2022-09-28T11:48:23.923Z,0.60
2022-09-28T11:50:58.489Z,0.88
2022-09-28T11:53:37.134Z,0.82
2022-09-28T11:56:27.000Z,0.75
2022-09-28T11:58:58.036Z,1.48
2022-09-28T12:01:46.474Z,1.10
2022-09-28T12:04:19.040Z,0.65
2022-09-28T12:07:31.464Z,0.90
2022-09-28T12:10:10.380Z,0.70
2022-09-28T12:12:54.289Z,0.98
2022-09-28T12:15:26.008Z,0.98
2022-09-28T12:18:07.819Z,1.08
2022-09-28T12:20:40.196Z,0.77
2022-09-28T12:23:31.044Z,0.70
2022-09-28T12:26:14.553Z,0.40
2022-09-28T12:28:49.849Z,0.47
2022-09-28T12:31:54.692Z,0.40
2022-09-28T12:34:22.176Z,0.60
2022-09-28T12:37:33.557Z,0.45
2022-09-28T12:40:18.306Z,0.65
2022-09-28T12:43:06.883Z,0.50
2022-09-28T12:46:10.836Z,1.50
2022-09-28T12:51:57.664Z,0.63
2022-09-28T12:54:47.324Z,0.70
2022-09-28T12:57:48.247Z,0.60
2022-09-28T13:00:22.249Z,0.55
2022-09-28T13:03:29.078Z,0.40
2022-09-28T13:06:34.320Z,0.60
2022-09-28T13:09:20.719Z,1.20
2022-09-28T13:12:00.000Z,0.80
2022-09-28T13:15:05.009Z,0.57
2022-09-28T13:17:31.491Z,0.40
2022-09-28T13:19:59.193Z,0.70
2022-09-28T13:23:15.053Z,0.85
2022-09-28T13:25:47.916Z,0.50
2022-09-28T13:28:18.664Z,0.47
2022-09-28T13:30:46.068Z,0.50
2022-09-28T13:33:28.914Z,0.40
2022-09-28T13:35:55.426Z,1.33
2022-09-28T13:38:21.905Z,1.20
2022-09-28T13:41:06.790Z,0.90
2022-09-28T13:43:53.537Z,4.38
2022-09-28T13:46:36.775Z,16.65
2022-09-28T13:49:26.907Z,3.08
2022-09-28T13:52:05.155Z,1.35
2022-09-28T13:55:16.681Z,1.10
2022-09-28T13:58:04.551Z,1.70
2022-09-28T14:00:54.227Z,1.13
2022-09-28T14:03:43.396Z,1.05
2022-09-28T14:06:29.992Z,0.75
2022-09-28T14:09:15.922Z,1.17
2022-09-28T14:11:55.014Z,1.20
2022-09-28T14:17:19.311Z,0.68
2022-09-28T14:19:52.251Z,1.10
2022-09-28T14:22:57.818Z,0.80
2022-09-28T14:25:27.789Z,0.80
2022-09-28T14:28:03.353Z,0.60
2022-09-28T14:30:41.967Z,0.60
2022-09-28T14:33:26.615Z,0.75
2022-09-28T14:36:05.282Z,0.60
2022-09-28T14:39:05.642Z,0.55
2022-09-28T14:41:36.476Z,0.77
2022-09-28T14:44:08.500Z,0.60
2022-09-28T14:46:40.597Z,0.70
2022-09-28T14:49:19.764Z,0.73
2022-09-28T14:54:27.703Z,0.52
2022-09-28T14:59:36.225Z,0.52
2022-09-28T15:02:13.390Z,0.63
2022-09-28T15:04:48.883Z,1.10
2022-09-28T15:07:28.718Z,0.50
2022-09-28T15:09:59.831Z,0.60
2022-09-28T15:12:28.935Z,0.90
2022-09-28T15:17:29.196Z,0.43
2022-09-28T15:20:00.840Z,0.68
2022-09-28T15:22:27.554Z,0.47
2022-09-28T15:25:02.000Z,0.60
2022-09-28T15:27:38.024Z,0.57
2022-09-28T15:30:25.442Z,0.60
2022-09-28T15:32:56.605Z,0.50
2022-09-28T15:35:26.561Z,0.60
2022-09-28T15:37:55.034Z,0.50
2022-09-28T15:40:33.675Z,0.50
2022-09-28T15:43:00.571Z,0.70
2022-09-28T15:45:37.062Z,0.60
2022-09-28T15:48:43.116Z,0.70
2022-09-28T15:51:11.597Z,0.80
2022-09-28T15:53:51.342Z,0.50
2022-09-28T15:56:17.881Z,0.60
2022-09-28T15:59:13.031Z,1.17
2022-09-28T16:01:42.484Z,0.80
2022-09-28T16:04:33.738Z,1.17
2022-09-28T16:07:09.371Z,0.60
2022-09-28T16:09:55.661Z,0.60
2022-09-28T16:12:31.256Z,0.80
2022-09-28T16:15:03.964Z,0.50
2022-09-28T16:17:33.642Z,0.70
2022-09-28T16:20:18.897Z,1.00
2022-09-28T16:22:45.969Z,0.75
2022-09-28T16:25:19.579Z,0.80
2022-09-28T16:27:46.234Z,0.60
2022-09-28T16:30:27.286Z,0.73
2022-09-28T16:33:05.798Z,0.57
2022-09-28T16:35:50.930Z,0.77
2022-09-28T16:38:19.023Z,0.93
2022-09-28T16:40:50.664Z,0.82
2022-09-28T16:43:30.280Z,0.80
2022-09-28T16:46:04.450Z,1.02
2022-09-28T16:48:34.308Z,1.40
2022-09-28T16:51:00.854Z,1.00
2022-09-28T16:53:46.072Z,1.08
2022-09-28T16:56:13.454Z,0.95
2022-09-28T16:58:40.151Z,1.13
2022-09-28T17:01:09.601Z,1.50
2022-09-28T17:03:36.296Z,2.30
2022-09-28T17:06:06.117Z,2.00
2022-09-28T17:08:35.392Z,2.28
2022-09-28T17:11:24.507Z,1.38
2022-09-28T17:13:51.913Z,1.23
2022-09-28T17:16:42.682Z,2.22
2022-09-28T17:19:18.128Z,1.00
2022-09-28T17:21:44.992Z,1.33
2022-09-28T17:24:11.551Z,0.93
2022-09-28T17:26:38.183Z,0.88
2022-09-28T17:29:08.720Z,0.93
2022-09-28T17:31:35.265Z,0.73
2022-09-28T17:34:01.834Z,0.60
2022-09-28T17:36:30.414Z,0.70
2022-09-28T17:38:57.288Z,0.80
2022-09-28T17:41:24.000Z,0.95
2022-09-28T17:43:50.537Z,1.17
2022-09-28T17:46:28.338Z,1.08
2022-09-28T17:48:59.571Z,1.05
2022-09-28T17:51:31.138Z,1.02
2022-09-28T17:53:58.727Z,0.70
2022-09-28T17:56:29.710Z,1.10
2022-09-28T17:59:07.462Z,1.08
2022-09-28T18:01:37.585Z,1.08
2022-09-28T18:04:06.654Z,2.45
2022-09-28T18:06:37.422Z,1.73
2022-09-28T18:09:04.970Z,1.60
2022-09-28T18:11:32.583Z,1.00
2022-09-28T18:13:59.189Z,0.80
2022-09-28T18:16:27.986Z,1.40
2022-09-28T18:18:54.956Z,1.00
2022-09-28T18:21:21.740Z,5.55
2022-09-28T18:23:48.587Z,3.92
2022-09-28T18:26:16.833Z,1.40
2022-09-28T18:28:43.413Z,1.25
2022-09-28T18:31:12.228Z,1.10
2022-09-28T18:33:39.442Z,1.02
2022-09-28T18:36:07.424Z,0.98
2022-09-28T18:38:37.910Z,1.27
2022-09-28T18:41:16.143Z,1.80
2022-09-28T18:43:48.876Z,0.97
2022-09-28T18:46:18.230Z,0.88
2022-09-28T18:48:44.955Z,0.98
2022-09-28T18:51:12.487Z,1.30
2022-09-28T18:53:39.786Z,1.17
2022-09-28T18:56:08.667Z,1.23
2022-09-28T18:58:39.891Z,1.30
2022-09-28T19:04:00.422Z,2.42
2022-09-28T19:06:27.751Z,1.48
2022-09-28T19:08:57.921Z,1.10
2022-09-28T19:11:25.323Z,1.40
2022-09-28T19:13:53.525Z,0.90
2022-09-28T19:16:22.481Z,1.58
2022-09-28T19:18:51.382Z,1.50
2022-09-28T19:21:18.089Z,1.20
2022-09-28T19:23:49.261Z,1.17
2022-09-28T19:26:22.594Z,0.90
2022-09-28T19:28:49.243Z,1.00
2022-09-28T19:31:16.276Z,1.00
2022-09-28T19:33:43.817Z,0.82
2022-09-28T19:36:13.570Z,1.00
2022-09-28T19:38:40.752Z,0.90
2022-09-28T19:41:12.399Z,1.27
2022-09-28T19:43:40.708Z,1.00
2022-09-28T19:46:08.246Z,1.00
2022-09-28T19:48:35.452Z,1.30
2022-09-28T19:51:05.024Z,1.10
2022-09-28T19:53:36.684Z,1.15
2022-09-28T19:56:05.398Z,4.13
2022-09-28T19:58:34.555Z,2.28
